Time;durP1;ratioP1;P1;durP2;ratioP2;P2;SDS_P1;SDS_P2;PMS_P1;PMS_P2;Temp;Humidity;BMP_temperature;BMP_pressure;BME280_temperature;BME280_humidity;BME280_pressure;Samples;Min_cycle;Max_cycle;Signal;HPM_P1;HPM_P2
2022/11/09 00:02:06;;;;;;;7.05;3.13;;;7.30;99.90;;;;;;5052051;28;20017;-74
2022/11/09 00:04:31;;;;;;;5.82;4.10;;;7.40;99.90;;;;;;5051691;28;20028;-76
2022/11/09 00:06:57;;;;;;;7.18;4.07;;;7.40;99.90;;;;;;5051634;28;20017;-75
2022/11/09 00:09:23;;;;;;;7.30;4.75;;;7.40;99.90;;;;;;5051936;28;20104;-74
2022/11/09 00:11:48;;;;;;;18.30;5.15;;;7.50;99.90;;;;;;5051489;28;20032;-75
2022/11/09 00:14:15;;;;;;;5.05;3.20;;;7.50;99.90;;;;;;5051585;28;20021;-74
2022/11/09 00:16:41;;;;;;;3.80;2.80;;;7.60;99.90;;;;;;5054356;28;20027;-74
2022/11/09 00:19:07;;;;;;;3.88;3.33;;;7.70;99.90;;;;;;5060828;28;20056;-75
2022/11/09 00:21:33;;;;;;;3.92;2.75;;;7.80;99.90;;;;;;5061769;28;20028;-74
2022/11/09 00:23:58;;;;;;;4.90;2.65;;;7.80;99.90;;;;;;5060853;28;20021;-74
2022/11/09 00:26:25;;;;;;;2.97;2.63;;;7.90;99.90;;;;;;5038233;28;20036;-74
2022/11/09 00:28:51;;;;;;;4.70;3.42;;;8.10;99.90;;;;;;5051372;28;20025;-74
2022/11/09 00:31:20;;;;;;;4.15;2.90;;;8.20;99.90;;;;;;5051820;28;20120;-77
2022/11/09 00:33:48;;;;;;;6.68;2.80;;;8.20;99.90;;;;;;5050512;28;20095;-75
2022/11/09 00:36:16;;;;;;;5.47;2.50;;;8.30;99.90;;;;;;5050801;28;20037;-74
2022/11/09 00:38:46;;;;;;;2.88;2.58;;;8.40;99.90;;;;;;5051053;28;20440;-74
2022/11/09 00:41:14;;;;;;;3.95;2.00;;;8.30;99.90;;;;;;5051306;28;20079;-75
2022/11/09 00:43:40;;;;;;;5.57;2.97;;;8.30;99.90;;;;;;5050009;28;20025;-74
2022/11/09 00:46:06;;;;;;;3.35;2.88;;;8.40;99.90;;;;;;5049269;28;20052;-74
2022/11/09 00:48:32;;;;;;;3.00;2.70;;;8.40;99.90;;;;;;5049044;28;20043;-74
2022/11/09 00:50:59;;;;;;;2.40;1.88;;;8.50;99.90;;;;;;5049493;28;20029;-76
2022/11/09 00:53:26;;;;;;;4.35;2.45;;;8.50;99.90;;;;;;5049297;28;20021;-74
2022/11/09 00:56:02;;;;;;;3.88;2.38;;;8.60;99.90;;;;;;5049609;28;20431;-75
2022/11/09 00:58:30;;;;;;;3.35;2.55;;;8.60;99.90;;;;;;5049701;28;20485;-74
2022/11/09 01:00:57;;;;;;;3.13;1.80;;;8.60;99.90;;;;;;5050822;28;20029;-74
2022/11/09 01:03:23;;;;;;;2.95;2.33;;;8.70;99.90;;;;;;5050882;28;20112;-75
2022/11/09 01:05:49;;;;;;;2.97;2.00;;;8.70;99.90;;;;;;5050704;28;20025;-76
2022/11/09 01:08:15;;;;;;;6.60;2.60;;;8.70;99.90;;;;;;5050621;28;20029;-75
2022/11/09 01:10:43;;;;;;;7.53;2.10;;;8.70;99.90;;;;;;5050738;28;20082;-74
2022/11/09 01:13:10;;;;;;;2.50;2.30;;;8.70;99.90;;;;;;5050645;28;20021;-74
2022/11/09 01:15:45;;;;;;;5.78;3.28;;;8.70;99.90;;;;;;5050988;28;20021;-77
2022/11/09 01:18:12;;;;;;;4.78;2.15;;;8.80;99.90;;;;;;5050410;28;20529;-75
2022/11/09 01:20:40;;;;;;;3.28;2.25;;;8.80;99.90;;;;;;5050585;28;20032;-74
2022/11/09 01:23:06;;;;;;;6.22;3.13;;;8.90;99.90;;;;;;5050458;28;20028;-74
2022/11/09 01:25:32;;;;;;;2.92;2.33;;;8.90;99.90;;;;;;5050564;28;20083;-74
2022/11/09 01:27:58;;;;;;;2.40;2.20;;;9.00;99.90;;;;;;5050470;28;20382;-74
2022/11/09 01:30:27;;;;;;;3.88;2.10;;;9.00;99.90;;;;;;5050636;28;20040;-77
2022/11/09 01:32:53;;;;;;;5.20;2.67;;;9.00;99.90;;;;;;5050173;28;20017;-76
2022/11/09 01:35:19;;;;;;;3.92;2.17;;;9.00;99.90;;;;;;5050619;28;20057;-74
2022/11/09 01:37:44;;;;;;;1.98;1.70;;;9.00;99.90;;;;;;5050258;28;20032;-74
2022/11/09 01:40:11;;;;;;;4.13;2.40;;;9.00;99.90;;;;;;5050558;28;20029;-73
2022/11/09 01:42:39;;;;;;;3.22;2.60;;;9.00;99.90;;;;;;5050174;28;20071;-74
2022/11/09 01:45:22;;;;;;;4.82;2.35;;;9.10;99.90;;;;;;5050294;28;20025;-74
2022/11/09 01:47:57;;;;;;;4.63;3.05;;;9.10;99.90;;;;;;5049893;28;20592;-73
2022/11/09 01:50:39;;;;;;;7.20;2.90;;;9.10;99.90;;;;;;5050036;28;20025;-73
2022/11/09 01:53:10;;;;;;;4.95;2.90;;;9.10;99.90;;;;;;5050304;28;20383;-74
2022/11/09 01:55:36;;;;;;;3.17;2.45;;;9.10;99.90;;;;;;5050016;28;20417;-74
2022/11/09 01:58:07;;;;;;;8.13;2.60;;;9.10;99.90;;;;;;5049983;28;20021;-73
2022/11/09 02:00:37;;;;;;;3.17;1.95;;;9.10;99.90;;;;;;5049971;28;20092;-74
2022/11/09 02:03:28;;;;;;;4.25;2.60;;;9.10;99.90;;;;;;5050410;28;20033;-74
2022/11/09 02:05:55;;;;;;;3.17;2.55;;;9.20;99.90;;;;;;5050067;28;20021;-74
2022/11/09 02:08:25;;;;;;;2.80;2.05;;;9.30;99.90;;;;;;5050044;28;20025;-74
2022/11/09 02:11:02;;;;;;;5.40;2.45;;;9.30;99.90;;;;;;5053897;28;20473;-73
2022/11/09 02:13:29;;;;;;;2.58;2.17;;;9.30;99.90;;;;;;5054496;28;20032;-74
2022/11/09 02:15:56;;;;;;;2.85;2.15;;;;;;;;;;5054109;28;20085;-74
2022/11/09 02:18:22;;;;;;;2.85;2.50;;;9.20;99.90;;;;;;5053793;28;20033;-74
2022/11/09 02:20:52;;;;;;;5.07;3.45;;;9.10;99.90;;;;;;5053878;28;20374;-74
2022/11/09 02:23:18;;;;;;;4.20;3.30;;;9.20;99.90;;;;;;5054345;28;20094;-74
2022/11/09 02:25:59;;;;;;;2.90;2.63;;;9.20;99.90;;;;;;5053747;28;20017;-74
2022/11/09 02:28:26;;;;;;;2.33;2.13;;;9.20;99.90;;;;;;5053692;28;20032;-74
2022/11/09 02:30:54;;;;;;;3.97;2.90;;;9.30;99.90;;;;;;5053731;28;20012;-75
2022/11/09 02:33:20;;;;;;;2.83;2.53;;;9.30;99.90;;;;;;5053633;28;20537;-74
2022/11/09 02:36:02;;;;;;;4.97;2.75;;;9.30;99.90;;;;;;5053621;28;20136;-74
2022/11/09 02:38:28;;;;;;;6.60;3.67;;;9.20;99.90;;;;;;5053597;28;20036;-74
2022/11/09 02:40:53;;;;;;;4.63;3.10;;;9.30;99.90;;;;;;5053728;28;20083;-73
2022/11/09 02:43:19;;;;;;;6.65;3.63;;;9.30;99.90;;;;;;5053689;28;20094;-74
2022/11/09 02:45:45;;;;;;;7.85;3.35;;;9.30;99.90;;;;;;5053624;28;20029;-74
2022/11/09 02:48:16;;;;;;;6.40;3.25;;;9.30;99.90;;;;;;5053177;28;20427;-74
2022/11/09 02:50:42;;;;;;;3.42;3.13;;;9.30;99.90;;;;;;5053289;28;20021;-74
2022/11/09 02:53:08;;;;;;;7.15;4.65;;;9.30;99.90;;;;;;5053383;28;20093;-74
2022/11/09 02:55:37;;;;;;;3.13;2.83;;;9.20;99.90;;;;;;5053306;28;20102;-74
2022/11/09 02:58:02;;;;;;;3.78;2.95;;;9.20;99.90;;;;;;5053291;28;20061;-74
2022/11/09 03:00:28;;;;;;;5.47;3.67;;;9.20;99.90;;;;;;5053078;28;20146;-74
2022/11/09 03:02:58;;;;;;;7.43;3.58;;;9.20;99.90;;;;;;5052955;28;20199;-74
2022/11/09 03:05:27;;;;;;;7.43;3.92;;;9.20;99.90;;;;;;5053417;28;20032;-74
2022/11/09 03:07:52;;;;;;;5.65;3.80;;;9.30;99.90;;;;;;5052976;28;20029;-73
2022/11/09 03:10:21;;;;;;;3.83;3.25;;;9.30;99.90;;;;;;5052908;28;20033;-73
2022/11/09 03:12:49;;;;;;;8.07;4.53;;;9.30;99.90;;;;;;5053029;28;20071;-73
2022/11/09 03:15:16;;;;;;;4.90;3.13;;;9.30;99.90;;;;;;5052875;28;20035;-74
2022/11/09 03:17:42;;;;;;;7.53;3.28;;;9.30;99.90;;;;;;5052681;28;20033;-74
2022/11/09 03:20:12;;;;;;;8.45;3.42;;;9.30;99.90;;;;;;5034270;28;20043;-74
2022/11/09 03:22:37;;;;;;;4.00;3.30;;;9.30;99.90;;;;;;5051796;28;20039;-74
2022/11/09 03:25:04;;;;;;;6.45;3.58;;;9.30;99.90;;;;;;5034957;28;20478;-74
2022/11/09 03:27:30;;;;;;;6.40;3.75;;;9.30;99.90;;;;;;5052650;28;20482;-74
2022/11/09 03:29:55;;;;;;;4.35;3.25;;;9.30;99.90;;;;;;5052631;28;20033;-74
2022/11/09 03:32:21;;;;;;;3.97;3.30;;;9.30;99.90;;;;;;5052721;28;20116;-74
2022/11/09 03:34:50;;;;;;;7.32;4.30;;;9.40;99.90;;;;;;5052575;28;20062;-74
2022/11/09 03:37:16;;;;;;;6.35;4.53;;;9.40;99.90;;;;;;5052581;28;20103;-74
2022/11/09 03:39:42;;;;;;;4.60;2.75;;;9.30;99.90;;;;;;5052412;28;20115;-74
2022/11/09 03:42:07;;;;;;;6.90;3.63;;;9.30;99.90;;;;;;5052327;28;20043;-74
2022/11/09 03:44:33;;;;;;;6.90;3.78;;;9.40;99.90;;;;;;5052302;28;20041;-74
2022/11/09 03:46:59;;;;;;;7.55;3.40;;;9.40;99.90;;;;;;5052332;28;20054;-74
2022/11/09 03:49:28;;;;;;;4.20;3.65;;;9.40;99.90;;;;;;5052265;28;20068;-74
2022/11/09 03:51:53;;;;;;;6.32;3.22;;;9.50;99.90;;;;;;5052097;28;20025;-74
2022/11/09 03:54:19;;;;;;;6.47;3.10;;;9.40;99.90;;;;;;5052055;28;20075;-74
2022/11/09 03:56:45;;;;;;;7.45;4.10;;;9.40;99.90;;;;;;5052115;28;20025;-74
2022/11/09 03:59:10;;;;;;;7.95;3.08;;;9.40;99.90;;;;;;5051901;28;20096;-75
2022/11/09 04:01:37;;;;;;;5.85;4.47;;;9.40;99.90;;;;;;5052165;28;20024;-74
2022/11/09 04:04:08;;;;;;;5.95;3.60;;;9.40;99.90;;;;;;5051848;28;20052;-75
2022/11/09 04:06:34;;;;;;;7.18;4.78;;;9.40;99.90;;;;;;5050194;28;20021;-74
2022/11/09 04:09:00;;;;;;;13.82;3.80;;;9.30;99.90;;;;;;5050104;28;20125;-74
2022/11/09 04:11:28;;;;;;;5.53;3.33;;;9.30;99.90;;;;;;5050010;28;20467;-75
2022/11/09 04:13:54;;;;;;;5.05;3.63;;;9.30;99.90;;;;;;5031845;28;20422;-75
2022/11/09 04:16:20;;;;;;;3.45;3.15;;;9.40;99.90;;;;;;5049972;28;20063;-74
2022/11/09 04:18:46;;;;;;;4.85;3.63;;;9.30;99.90;;;;;;5049944;28;20044;-74
2022/11/09 04:21:12;;;;;;;9.45;4.32;;;9.40;99.90;;;;;;5032038;28;20033;-75
2022/11/09 04:23:37;;;;;;;3.28;2.85;;;9.40;99.90;;;;;;5049980;28;20021;-74
2022/11/09 04:26:03;;;;;;;3.72;3.13;;;9.40;99.90;;;;;;5049803;28;20069;-75
2022/11/09 04:28:29;;;;;;;4.85;3.70;;;9.50;99.90;;;;;;5049883;28;20482;-75
2022/11/09 04:30:59;;;;;;;8.20;3.53;;;9.40;99.90;;;;;;5049556;28;20032;-76
2022/11/09 04:33:28;;;;;;;7.63;3.25;;;9.50;99.90;;;;;;5049074;28;20022;-75
2022/11/09 04:35:54;;;;;;;9.33;4.37;;;9.50;99.90;;;;;;5049848;28;20033;-75
2022/11/09 04:38:19;;;;;;;5.57;3.53;;;9.50;99.90;;;;;;5035236;28;20064;-75
2022/11/09 04:40:45;;;;;;;8.52;3.72;;;9.50;99.90;;;;;;5050716;28;20490;-75
2022/11/09 04:43:14;;;;;;;10.60;4.18;;;9.60;99.90;;;;;;5049569;28;20178;-75
2022/11/09 04:45:40;;;;;;;4.57;3.53;;;9.60;99.90;;;;;;5049378;28;20029;-75
2022/11/09 04:48:10;;;;;;;7.05;4.22;;;9.80;99.90;;;;;;5049169;28;20048;-75
2022/11/09 04:50:36;;;;;;;6.00;4.55;;;9.70;99.90;;;;;;5049395;28;20056;-75
2022/11/09 04:53:11;;;;;;;4.03;3.10;;;9.70;99.90;;;;;;5049688;28;20056;-75
2022/11/09 04:55:37;;;;;;;4.95;3.85;;;9.60;99.90;;;;;;5049692;28;20033;-75
2022/11/09 04:58:04;;;;;;;9.98;3.88;;;9.60;99.90;;;;;;5049743;28;20096;-74
2022/11/09 05:00:30;;;;;;;5.32;2.90;;;9.50;99.90;;;;;;5051444;28;20041;-76
2022/11/09 05:03:00;;;;;;;7.72;3.30;;;9.50;99.90;;;;;;5051387;28;20068;-75
2022/11/09 05:05:26;;;;;;;9.88;4.30;;;9.40;99.90;;;;;;5050846;28;20056;-74
2022/11/09 05:07:52;;;;;;;10.07;4.35;;;9.50;99.90;;;;;;5050789;28;20021;-75
2022/11/09 05:10:18;;;;;;;5.57;3.75;;;9.40;99.90;;;;;;5049707;28;20063;-74
2022/11/09 05:12:43;;;;;;;5.68;3.92;;;9.50;99.90;;;;;;5050645;28;20020;-74
2022/11/09 05:15:10;;;;;;;5.45;3.70;;;9.50;99.90;;;;;;5050873;28;20017;-74
2022/11/09 05:17:35;;;;;;;8.18;3.67;;;9.40;99.90;;;;;;5050352;28;20108;-75
2022/11/09 05:20:02;;;;;;;7.53;3.85;;;9.40;99.90;;;;;;5050496;28;20171;-75
2022/11/09 05:25:12;;;;;;;3.30;2.70;;;9.40;99.90;;;;;;5050454;28;20028;-74
2022/11/09 05:27:38;;;;;;;14.82;6.07;;;9.40;99.90;;;;;;5050321;28;20032;-75
2022/11/09 05:30:04;;;;;;;6.53;4.30;;;9.40;99.90;;;;;;5050801;28;20021;-75
2022/11/09 05:32:30;;;;;;;5.85;4.32;;;9.40;99.90;;;;;;5050250;28;20033;-76
2022/11/09 05:34:55;;;;;;;4.05;3.63;;;9.40;99.90;;;;;;5050166;28;20041;-76
2022/11/09 05:37:21;;;;;;;7.90;3.45;;;9.40;99.90;;;;;;5050121;28;20097;-75
2022/11/09 05:39:47;;;;;;;12.82;4.18;;;9.50;99.90;;;;;;5050214;28;20535;-75
2022/11/09 05:42:13;;;;;;;6.10;4.30;;;9.60;99.90;;;;;;5050328;28;20048;-75
2022/11/09 05:44:38;;;;;;;3.80;3.17;;;9.50;99.90;;;;;;5049410;28;20090;-75
2022/11/09 05:47:04;;;;;;;7.75;4.35;;;9.50;99.90;;;;;;5050044;28;20370;-75
2022/11/09 05:49:30;;;;;;;6.82;5.20;;;9.40;99.90;;;;;;5050110;28;20319;-75
2022/11/09 05:51:58;;;;;;;6.65;4.55;;;9.30;99.90;;;;;;5050000;28;20470;-75
2022/11/09 05:54:34;;;;;;;7.28;4.95;;;9.30;99.90;;;;;;5050096;28;20025;-75
2022/11/09 05:57:00;;;;;;;6.32;4.13;;;9.30;99.90;;;;;;5049758;28;20401;-75
2022/11/09 05:59:26;;;;;;;4.47;3.50;;;9.40;99.90;;;;;;5048705;28;20186;-76
2022/11/09 06:01:52;;;;;;;5.35;3.80;;;9.40;99.90;;;;;;5049978;28;20268;-76
2022/11/09 06:04:18;;;;;;;5.25;3.78;;;9.50;99.90;;;;;;5049873;28;20378;-76
2022/11/09 06:06:43;;;;;;;4.18;3.78;;;9.40;99.90;;;;;;5032037;28;20029;-76
2022/11/09 06:09:09;;;;;;;4.10;3.10;;;9.50;99.90;;;;;;5049843;28;20032;-75
2022/11/09 06:11:35;;;;;;;7.70;4.43;;;9.40;99.90;;;;;;5049978;28;20025;-75
2022/11/09 06:14:03;;;;;;;8.40;4.80;;;9.50;99.90;;;;;;5049888;28;20025;-75
2022/11/09 06:16:29;;;;;;;8.10;5.00;;;9.50;99.90;;;;;;5049587;28;20199;-75
2022/11/09 06:18:55;;;;;;;7.70;4.40;;;9.50;99.90;;;;;;5049591;28;20203;-75
2022/11/09 06:21:20;;;;;;;15.65;8.25;;;9.50;99.90;;;;;;5049667;28;20116;-75
2022/11/09 06:23:46;;;;;;;17.63;8.73;;;9.40;99.90;;;;;;5032009;28;20021;-75
2022/11/09 06:26:21;;;;;;;10.05;5.35;;;9.40;99.90;;;;;;5049873;28;20021;-75
2022/11/09 06:28:47;;;;;;;6.45;4.72;;;8.80;99.90;;;;;;5049631;28;20021;-75
2022/11/09 06:31:15;;;;;;;6.43;4.57;;;9.50;99.90;;;;;;5049772;28;20435;-75
2022/11/09 06:33:41;;;;;;;5.70;4.35;;;9.50;99.90;;;;;;5033690;28;20021;-75
2022/11/09 06:36:08;;;;;;;9.25;4.68;;;9.50;99.90;;;;;;5045972;28;20064;-74
2022/11/09 06:38:34;;;;;;;8.77;5.03;;;9.50;99.90;;;;;;5030317;28;20014;-75
2022/11/09 06:41:00;;;;;;;7.60;3.80;;;9.50;99.90;;;;;;5026797;28;20052;-75
2022/11/09 06:43:26;;;;;;;6.95;4.90;;;9.50;99.90;;;;;;5026443;28;20381;-75
2022/11/09 06:45:53;;;;;;;9.80;5.63;;;9.50;99.90;;;;;;5026608;28;20113;-75
2022/11/09 06:48:19;;;;;;;8.75;5.53;;;9.50;99.90;;;;;;5024019;28;20057;-74
2022/11/09 06:50:44;;;;;;;10.40;4.28;;;9.50;99.90;;;;;;5025817;28;20025;-75
2022/11/09 06:53:13;;;;;;;13.25;5.70;;;9.60;99.90;;;;;;5044092;28;20385;-75
2022/11/09 06:55:39;;;;;;;8.20;4.70;;;9.60;99.90;;;;;;5046824;28;20473;-75
2022/11/09 06:58:09;;;;;;;9.13;5.32;;;8.60;99.90;;;;;;5049479;28;20478;-75
2022/11/09 07:00:36;;;;;;;7.28;4.50;;;9.60;99.90;;;;;;5049600;28;20039;-75
2022/11/09 07:03:02;;;;;;;9.63;5.22;;;9.70;99.90;;;;;;5050820;28;20033;-75
2022/11/09 07:05:31;;;;;;;9.75;6.50;;;9.70;99.90;;;;;;5050480;28;20032;-75
2022/11/09 07:07:57;;;;;;;6.75;5.00;;;9.60;99.90;;;;;;5050366;28;20033;-75
2022/11/09 07:10:24;;;;;;;14.25;8.27;;;9.70;99.90;;;;;;5049704;28;20087;-75
2022/11/09 07:12:49;;;;;;;9.10;7.07;;;9.70;99.90;;;;;;5049710;28;20068;-75
2022/11/09 07:15:17;;;;;;;11.10;6.70;;;9.70;99.90;;;;;;5050257;28;20049;-75
2022/11/09 07:17:43;;;;;;;14.68;6.78;;;9.60;99.90;;;;;;5049362;28;20489;-75
2022/11/09 07:20:10;;;;;;;21.20;7.88;;;9.70;99.90;;;;;;5051121;28;20084;-75
2022/11/09 07:22:38;;;;;;;12.13;6.45;;;9.70;99.90;;;;;;5050153;28;20412;-75
2022/11/09 07:25:12;;;;;;;11.30;7.57;;;9.70;99.90;;;;;;5049398;28;20040;-75
2022/11/09 07:27:38;;;;;;;11.50;6.47;;;9.70;99.90;;;;;;5048059;28;20056;-75
2022/11/09 07:30:04;;;;;;;10.60;6.18;;;9.70;99.90;;;;;;5029114;28;20053;-75
2022/11/09 07:32:37;;;;;;;9.95;5.85;;;9.70;99.90;;;;;;5029093;28;20072;-74
2022/11/09 07:35:06;;;;;;;11.82;6.72;;;9.70;99.90;;;;;;5030344;28;20091;-74
2022/11/09 07:37:38;;;;;;;10.50;6.05;;;9.70;99.90;;;;;;5029886;28;20482;-75
2022/11/09 07:40:05;;;;;;;8.00;5.28;;;9.80;99.90;;;;;;5011252;28;20038;-75
2022/11/09 07:42:31;;;;;;;11.00;7.05;;;9.80;99.90;;;;;;5029021;28;20478;-75
2022/11/09 07:44:57;;;;;;;9.50;6.78;;;9.90;99.90;;;;;;5029066;28;20059;-75
2022/11/09 07:47:25;;;;;;;12.25;6.72;;;9.90;99.90;;;;;;5028589;28;20040;-75
2022/11/09 07:49:51;;;;;;;9.10;4.67;;;9.90;99.90;;;;;;5028879;28;20036;-75
2022/11/09 07:52:17;;;;;;;6.00;4.00;;;9.90;99.90;;;;;;5028782;28;20272;-76
2022/11/09 07:54:42;;;;;;;12.23;5.00;;;10.00;99.90;;;;;;5028987;28;20382;-75
2022/11/09 07:57:08;;;;;;;6.90;4.15;;;10.00;99.90;;;;;;5029324;28;20206;-75
2022/11/09 07:59:34;;;;;;;6.43;4.38;;;10.00;99.90;;;;;;5028688;28;20029;-75
2022/11/09 08:01:59;;;;;;;7.95;4.45;;;10.00;99.90;;;;;;5028459;28;20479;-75
2022/11/09 08:04:25;;;;;;;11.57;7.00;;;10.00;99.90;;;;;;5029158;28;20494;-75
2022/11/09 08:06:52;;;;;;;13.32;7.18;;;10.10;99.90;;;;;;5027686;28;20480;-76
2022/11/09 08:09:18;;;;;;;8.55;5.18;;;10.10;99.90;;;;;;5030086;28;20180;-75
2022/11/09 08:11:44;;;;;;;8.30;5.55;;;10.20;99.90;;;;;;5029585;28;20105;-76
2022/11/09 08:14:09;;;;;;;13.77;9.27;;;10.20;99.90;;;;;;5028386;28;20490;-76
2022/11/09 08:16:35;;;;;;;12.35;7.22;;;10.30;99.90;;;;;;5028646;28;20288;-77
2022/11/09 08:19:01;;;;;;;9.57;6.88;;;10.30;99.90;;;;;;5028095;28;20402;-77
2022/11/09 08:21:26;;;;;;;8.70;4.88;;;10.40;99.90;;;;;;5027978;28;20041;-77
2022/11/09 08:23:52;;;;;;;9.45;4.90;;;10.40;99.90;;;;;;5028436;28;20030;-77
2022/11/09 08:26:18;;;;;;;9.18;5.63;;;10.50;99.90;;;;;;5010155;28;20025;-77
2022/11/09 08:28:43;;;;;;;8.35;5.43;;;10.50;99.90;;;;;;5038217;28;20466;-78
2022/11/09 08:31:09;;;;;;;8.48;5.45;;;10.60;99.90;;;;;;5044140;28;20032;-74
2022/11/09 08:33:40;;;;;;;9.15;4.57;;;10.80;99.90;;;;;;5046948;28;20025;-78
2022/11/09 08:36:11;;;;;;;7.03;5.47;;;11.00;99.90;;;;;;5048787;28;20036;-75
2022/11/09 08:38:37;;;;;;;9.43;5.47;;;11.10;99.90;;;;;;5047861;28;20452;-74
2022/11/09 08:41:02;;;;;;;10.95;6.22;;;11.30;99.90;;;;;;5047791;28;20037;-76
2022/11/09 08:43:28;;;;;;;7.18;4.82;;;11.30;99.90;;;;;;5047912;28;20108;-76
2022/11/09 08:45:54;;;;;;;9.48;5.57;;;11.40;99.90;;;;;;5047514;28;20025;-76
2022/11/09 08:48:19;;;;;;;6.15;4.07;;;11.40;99.90;;;;;;5049339;28;20021;-77
2022/11/09 08:50:50;;;;;;;8.60;5.35;;;11.30;99.90;;;;;;5049932;28;20029;-77
2022/11/09 08:53:16;;;;;;;10.80;4.65;;;11.40;99.90;;;;;;5049956;28;20365;-76
2022/11/09 08:55:41;;;;;;;6.97;4.28;;;11.30;99.90;;;;;;5048078;28;20021;-76
2022/11/09 08:58:08;;;;;;;6.55;4.88;;;11.30;99.90;;;;;;5047876;28;20444;-77
2022/11/09 09:00:34;;;;;;;9.63;4.72;;;11.30;99.90;;;;;;5048102;28;20064;-76
2022/11/09 09:03:04;;;;;;;6.20;4.28;;;11.30;99.90;;;;;;5029250;28;20067;-77
2022/11/09 09:05:30;;;;;;;5.65;5.00;;;11.30;99.90;;;;;;5047980;28;20024;-76
2022/11/09 09:07:58;;;;;;;6.20;5.10;;;11.30;99.90;;;;;;5047408;28;20029;-77
2022/11/09 09:10:24;;;;;;;6.28;4.28;;;11.30;99.90;;;;;;5047906;28;20071;-76
2022/11/09 09:12:50;;;;;;;8.30;5.13;;;11.40;99.90;;;;;;5049127;28;20025;-76
2022/11/09 09:15:16;;;;;;;9.60;5.25;;;11.30;99.90;;;;;;5047657;28;20024;-76
2022/11/09 09:17:41;;;;;;;9.23;5.32;;;11.40;99.90;;;;;;5047140;28;20017;-76
2022/11/09 09:20:07;;;;;;;7.65;3.88;;;11.50;99.90;;;;;;5048262;28;20075;-76
2022/11/09 09:22:33;;;;;;;4.63;4.10;;;11.60;99.90;;;;;;5029822;28;20040;-75
2022/11/09 09:25:02;;;;;;;6.07;4.82;;;11.50;99.90;;;;;;5049098;28;20029;-75
2022/11/09 09:27:30;;;;;;;5.10;4.45;;;11.60;99.90;;;;;;5047363;28;20096;-75
2022/11/09 09:29:57;;;;;;;7.85;5.15;;;11.50;99.90;;;;;;5027581;28;20057;-77
2022/11/09 09:32:25;;;;;;;5.90;4.78;;;11.50;99.90;;;;;;5026507;28;20030;-75
2022/11/09 09:34:51;;;;;;;7.10;4.43;;;11.50;99.90;;;;;;5026993;28;20057;-77
2022/11/09 09:37:17;;;;;;;10.07;5.60;;;11.50;99.90;;;;;;5027649;28;20087;-76
2022/11/09 09:39:43;;;;;;;9.88;5.25;;;11.40;99.90;;;;;;5026621;28;20029;-79
2022/11/09 09:42:34;;;;;;;8.85;5.00;;;11.50;99.90;;;;;;5026766;28;20025;-75
2022/11/09 09:45:03;;;;;;;10.25;4.68;;;11.50;99.90;;;;;;5022314;28;20037;-76
2022/11/09 09:47:50;;;;;;;9.23;5.30;;;11.50;99.90;;;;;;5026482;28;20067;-75
2022/11/09 09:50:36;;;;;;;8.45;5.20;;;11.60;99.90;;;;;;5026973;28;20107;-75
2022/11/09 09:53:20;;;;;;;10.43;4.78;;;11.70;99.90;;;;;;5026792;28;20029;-75
2022/11/09 09:55:52;;;;;;;5.85;3.70;;;11.60;99.90;;;;;;5026629;28;20033;-77
2022/11/09 09:58:31;;;;;;;8.38;3.95;;;11.60;99.90;;;;;;5009202;28;20032;-77
2022/11/09 10:01:11;;;;;;;8.38;4.80;;;11.80;99.90;;;;;;5026744;28;20287;-75
2022/11/09 10:03:37;;;;;;;9.95;4.78;;;11.80;99.90;;;;;;5026630;28;20033;-76
2022/11/09 10:06:21;;;;;;;5.88;3.40;;;11.90;99.90;;;;;;5026486;28;20040;-76
2022/11/09 10:09:12;;;;;;;11.05;4.63;;;12.00;99.90;;;;;;5026138;28;20029;-76
2022/11/09 10:12:09;;;;;;;6.20;3.63;;;12.40;99.90;;;;;;5008805;28;20093;-76
2022/11/09 10:15:09;;;;;;;5.15;3.42;;;12.60;99.90;;;;;;5026683;28;20025;-75
2022/11/09 10:17:53;;;;;;;2.95;2.72;;;13.00;99.90;;;;;;5018412;28;20154;-77
2022/11/09 10:20:24;;;;;;;4.93;2.08;;;13.00;99.90;;;;;;5026524;28;20034;-76
2022/11/09 10:23:11;;;;;;;8.02;2.08;;;13.10;99.90;;;;;;5024750;28;20494;-76
2022/11/09 10:25:37;;;;;;;3.13;2.40;;;13.20;99.90;;;;;;5025109;28;20033;-76
2022/11/09 10:28:09;;;;;;;2.83;2.55;;;13.20;99.90;;;;;;5026419;28;20028;-77
2022/11/09 10:30:35;;;;;;;5.35;3.15;;;13.40;99.90;;;;;;5027672;28;20112;-76
2022/11/09 10:33:05;;;;;;;7.55;2.72;;;13.30;99.90;;;;;;5030486;28;20112;-77
2022/11/09 10:35:39;;;;;;;3.90;3.33;;;13.20;99.90;;;;;;5012828;28;20132;-76
2022/11/09 10:38:17;;;;;;;5.93;4.05;;;13.10;99.90;;;;;;5030571;28;20028;-75
2022/11/09 10:40:59;;;;;;;3.83;3.13;;;13.10;99.90;;;;;;5030534;28;20045;-74
2022/11/09 10:43:25;;;;;;;5.10;3.92;;;;;;;;;;5012640;28;20104;-76
2022/11/09 10:46:20;;;;;;;3.35;2.92;;;12.80;99.90;;;;;;5030410;28;20429;-74
2022/11/09 10:48:55;;;;;;;3.72;3.33;;;12.70;99.90;;;;;;5028592;28;20120;-76
2022/11/09 10:51:37;;;;;;;6.93;4.32;;;12.70;99.90;;;;;;5040957;28;20056;-76
2022/11/09 10:54:14;;;;;;;7.57;5.28;;;12.60;99.90;;;;;;5049828;28;20029;-76
2022/11/09 10:57:12;;;;;;;10.93;4.78;;;12.60;99.90;;;;;;5050274;28;20048;-75
2022/11/09 10:59:43;;;;;;;8.00;4.90;;;12.60;99.90;;;;;;5047900;28;20075;-76
2022/11/09 11:02:29;;;;;;;10.68;5.22;;;12.80;99.90;;;;;;5046068;28;20537;-77
2022/11/09 11:05:06;;;;;;;4.70;4.00;;;12.90;99.90;;;;;;5049752;28;20169;-74
2022/11/09 11:07:34;;;;;;;6.78;3.55;;;13.30;99.90;;;;;;5049854;28;20029;-76
2022/11/09 11:10:15;;;;;;;6.15;3.53;;;13.30;99.90;;;;;;5048890;28;20427;-77
2022/11/09 11:13:03;;;;;;;5.63;3.92;;;13.50;99.90;;;;;;5049530;28;20029;-77
2022/11/09 11:15:38;;;;;;;2.58;2.38;;;13.70;99.90;;;;;;5023698;28;20434;-79
2022/11/09 11:18:22;;;;;;;2.33;1.95;;;13.80;99.90;;;;;;5049293;28;20021;-78
2022/11/09 11:21:11;;;;;;;2.90;2.65;;;13.80;99.90;;;;;;5049087;28;20489;-77
2022/11/09 11:23:37;;;;;;;2.33;1.77;;;13.90;99.90;;;;;;5049700;28;20037;-77
2022/11/09 11:26:06;;;;;;;2.58;2.13;;;13.90;99.90;;;;;;5048999;28;20029;-77
2022/11/09 11:28:47;;;;;;;2.15;2.05;;;14.00;99.90;;;;;;5022857;28;20033;-78
2022/11/09 11:31:16;;;;;;;2.17;1.98;;;13.90;99.90;;;;;;5029088;28;20407;-78
2022/11/09 11:33:42;;;;;;;4.28;3.28;;;13.80;99.90;;;;;;5028257;28;20061;-79
2022/11/09 11:36:08;;;;;;;2.63;2.03;;;13.80;99.90;;;;;;5044751;28;20017;-77
2022/11/09 11:39:00;;;;;;;4.03;3.00;;;13.80;99.90;;;;;;5048401;28;20481;-78
2022/11/09 11:41:43;;;;;;;6.25;3.40;;;13.70;99.90;;;;;;5046737;28;20041;-78
2022/11/09 11:44:14;;;;;;;6.10;3.10;;;13.70;99.90;;;;;;5037561;28;20032;-78
2022/11/09 11:46:47;;;;;;;5.80;2.95;;;13.60;99.90;;;;;;5029834;28;20037;-78
2022/11/09 11:49:35;;;;;;;3.28;2.03;;;13.50;99.90;;;;;;5029549;28;20022;-78
2022/11/09 11:52:19;;;;;;;4.35;2.30;;;13.40;99.90;;;;;;5010792;28;20634;-77
2022/11/09 11:54:47;;;;;;;4.80;2.60;;;13.20;99.90;;;;;;5028739;28;20043;-76
2022/11/09 11:57:38;;;;;;;8.07;5.10;;;13.20;99.90;;;;;;5028694;28;20028;-76
2022/11/09 12:00:19;;;;;;;6.28;4.35;;;13.20;99.90;;;;;;5028524;28;20359;-76
2022/11/09 12:03:14;;;;;;;3.72;2.75;;;13.20;99.90;;;;;;5028287;28;20040;-76
2022/11/09 12:05:50;;;;;;;5.25;2.85;;;13.20;99.90;;;;;;5029062;28;20478;-76
2022/11/09 12:08:38;;;;;;;3.53;2.60;;;13.20;99.90;;;;;;5028336;28;20057;-76
2022/11/09 12:11:10;;;;;;;3.13;1.92;;;13.20;99.90;;;;;;5029744;28;20022;-76
2022/11/09 12:13:54;;;;;;;2.10;1.92;;;13.20;99.90;;;;;;5029260;28;20025;-77
2022/11/09 12:16:33;;;;;;;2.05;1.90;;;13.20;99.90;;;;;;5028851;28;20256;-77
2022/11/09 12:19:04;;;;;;;4.20;2.95;;;13.30;99.90;;;;;;5028584;28;20038;-76
2022/11/09 12:21:33;;;;;;;6.38;4.28;;;13.20;99.90;;;;;;5011130;28;20064;-76
2022/11/09 12:24:19;;;;;;;5.88;3.97;;;13.00;99.90;;;;;;5030122;28;20032;-77
2022/11/09 12:27:01;;;;;;;4.20;2.58;;;12.90;99.90;;;;;;5027780;28;20079;-76
2022/11/09 12:29:45;;;;;;;4.70;2.45;;;12.90;99.90;;;;;;5043209;28;20028;-77
2022/11/09 12:32:34;;;;;;;2.63;2.13;;;12.90;99.90;;;;;;5047500;28;20485;-77
2022/11/09 12:35:28;;;;;;;6.78;2.75;;;12.90;99.90;;;;;;5049291;28;20233;-77
2022/11/09 12:38:18;;;;;;;5.72;2.85;;;12.90;99.90;;;;;;5020821;28;20025;-74
2022/11/09 12:40:54;;;;;;;3.50;2.28;;;12.90;99.90;;;;;;5035416;28;20108;-77
2022/11/09 12:43:42;;;;;;;4.43;2.38;;;12.90;99.90;;;;;;5010082;28;20048;-78
2022/11/09 12:46:10;;;;;;;3.23;2.93;;;12.80;99.90;;;;;;4999426;28;20045;-78
2022/11/09 12:48:36;;;;;;;8.85;2.88;;;12.90;99.90;;;;;;5041118;28;20359;-77
2022/11/09 12:51:04;;;;;;;6.70;2.90;;;12.80;99.90;;;;;;5047037;28;20459;-78
2022/11/09 12:53:36;;;;;;;3.25;2.70;;;13.60;99.90;;;;;;5029321;28;20115;-78
2022/11/09 12:56:05;;;;;;;2.85;2.58;;;12.70;99.90;;;;;;5047856;28;20032;-78
2022/11/09 12:58:33;;;;;;;4.18;3.03;;;12.70;99.90;;;;;;5047571;28;20576;-76
2022/11/09 13:01:01;;;;;;;5.30;3.13;;;12.70;99.90;;;;;;5047131;28;20041;-76
2022/11/09 13:03:28;;;;;;;3.30;2.90;;;12.70;99.90;;;;;;5047207;28;20119;-76
2022/11/09 13:06:29;;;;;;;11.35;6.15;;;12.70;99.90;;;;;;5046085;28;20025;-75
2022/11/09 13:08:58;;;;;;;8.85;5.32;;;12.80;99.90;;;;;;5046969;28;20116;-77
2022/11/09 13:11:42;;;;;;;13.57;5.27;;;12.80;99.90;;;;;;5047446;28;20029;-77